sensor_id;sensor_type;location;lat;lon;timestamp;temperature;humidity
19397;DHT22;9834;48.076;11.878;2022-09-03T00:00:19;12.40;99.90
19397;DHT22;9834;48.076;11.878;2022-09-03T00:02:52;12.30;99.90
19397;DHT22;9834;48.076;11.878;2022-09-03T00:05:25;12.30;99.90
19397;DHT22;9834;48.076;11.878;2022-09-03T00:07:59;12.20;99.90
19397;DHT22;9834;48.076;11.878;2022-09-03T00:10:33;12.20;99.90
19397;DHT22;9834;48.076;11.878;2022-09-03T00:13:06;12.10;99.90
19397;DHT22;9834;48.076;11.878;2022-09-03T00:15:35;12.10;99.90
19397;DHT22;9834;48.076;11.878;2022-09-03T00:18:07;12.10;99.90
19397;DHT22;9834;48.076;11.878;2022-09-03T00:20:38;12.00;99.90
19397;DHT22;9834;48.076;11.878;2022-09-03T00:23:07;12.00;99.90
19397;DHT22;9834;48.076;11.878;2022-09-03T00:25:38;12.00;99.90
19397;DHT22;9834;48.076;11.878;2022-09-03T00:28:13;12.00;99.90
19397;DHT22;9834;48.076;11.878;2022-09-03T00:30:42;12.00;99.90
19397;DHT22;9834;48.076;11.878;2022-09-03T00:33:16;12.00;99.90
19397;DHT22;9834;48.076;11.878;2022-09-03T00:35:46;12.00;99.90
19397;DHT22;9834;48.076;11.878;2022-09-03T00:38:16;12.00;99.90
19397;DHT22;9834;48.076;11.878;2022-09-03T00:40:55;12.00;99.90
19397;DHT22;9834;48.076;11.878;2022-09-03T00:43:52;12.10;99.90
19397;DHT22;9834;48.076;11.878;2022-09-03T00:46:25;12.10;99.90
19397;DHT22;9834;48.076;11.878;2022-09-03T00:49:22;12.10;99.90
19397;DHT22;9834;48.076;11.878;2022-09-03T00:52:02;12.10;99.90
19397;DHT22;9834;48.076;11.878;2022-09-03T00:54:42;12.20;99.90
19397;DHT22;9834;48.076;11.878;2022-09-03T00:57:22;12.20;99.90
19397;DHT22;9834;48.076;11.878;2022-09-03T01:00:03;12.20;99.90
19397;DHT22;9834;48.076;11.878;2022-09-03T01:02:39;12.30;99.90
19397;DHT22;9834;48.076;11.878;2022-09-03T01:05:18;12.20;99.90
19397;DHT22;9834;48.076;11.878;2022-09-03T01:07:54;12.20;99.90
19397;DHT22;9834;48.076;11.878;2022-09-03T01:10:30;12.10;99.90
19397;DHT22;9834;48.076;11.878;2022-09-03T01:13:08;12.10;99.90
19397;DHT22;9834;48.076;11.878;2022-09-03T01:15:44;12.00;99.90
19397;DHT22;9834;48.076;11.878;2022-09-03T01:18:21;11.90;99.90
19397;DHT22;9834;48.076;11.878;2022-09-03T01:20:57;11.90;99.90
19397;DHT22;9834;48.076;11.878;2022-09-03T01:23:42;11.80;99.90
19397;DHT22;9834;48.076;11.878;2022-09-03T01:26:36;11.80;99.90
19397;DHT22;9834;48.076;11.878;2022-09-03T01:29:14;11.70;99.90
19397;DHT22;9834;48.076;11.878;2022-09-03T01:31:50;11.70;99.90
19397;DHT22;9834;48.076;11.878;2022-09-03T01:34:31;11.60;99.90
19397;DHT22;9834;48.076;11.878;2022-09-03T01:37:10;11.60;99.90
19397;DHT22;9834;48.076;11.878;2022-09-03T01:39:47;11.50;99.90
19397;DHT22;9834;48.076;11.878;2022-09-03T01:42:22;11.40;99.90
19397;DHT22;9834;48.076;11.878;2022-09-03T01:45:12;11.40;99.90
19397;DHT22;9834;48.076;11.878;2022-09-03T01:47:55;11.50;99.90
19397;DHT22;9834;48.076;11.878;2022-09-03T01:50:36;11.40;99.90
19397;DHT22;9834;48.076;11.878;2022-09-03T01:53:09;11.50;99.90
19397;DHT22;9834;48.076;11.878;2022-09-03T01:55:57;11.50;99.90
19397;DHT22;9834;48.076;11.878;2022-09-03T01:58:38;11.60;99.90
19397;DHT22;9834;48.076;11.878;2022-09-03T02:01:13;11.70;99.90
19397;DHT22;9834;48.076;11.878;2022-09-03T02:03:43;11.70;99.90
19397;DHT22;9834;48.076;11.878;2022-09-03T02:06:11;11.80;99.90
19397;DHT22;9834;48.076;11.878;2022-09-03T02:08:38;11.90;99.90
19397;DHT22;9834;48.076;11.878;2022-09-03T02:11:08;11.90;99.90
19397;DHT22;9834;48.076;11.878;2022-09-03T02:13:37;12.00;99.90
19397;DHT22;9834;48.076;11.878;2022-09-03T02:16:12;12.00;99.90
19397;DHT22;9834;48.076;11.878;2022-09-03T02:18:42;12.00;99.90
19397;DHT22;9834;48.076;11.878;2022-09-03T02:21:11;12.10;99.90
19397;DHT22;9834;48.076;11.878;2022-09-03T02:23:39;12.10;99.90
19397;DHT22;9834;48.076;11.878;2022-09-03T02:26:07;12.00;99.90
19397;DHT22;9834;48.076;11.878;2022-09-03T02:28:35;12.00;99.90
19397;DHT22;9834;48.076;11.878;2022-09-03T02:31:03;12.00;99.90
19397;DHT22;9834;48.076;11.878;2022-09-03T02:33:35;12.00;99.90
19397;DHT22;9834;48.076;11.878;2022-09-03T02:36:04;12.00;99.90
19397;DHT22;9834;48.076;11.878;2022-09-03T02:38:31;12.00;99.90
19397;DHT22;9834;48.076;11.878;2022-09-03T02:40:58;12.00;99.90
19397;DHT22;9834;48.076;11.878;2022-09-03T02:43:30;12.00;99.90
19397;DHT22;9834;48.076;11.878;2022-09-03T02:46:01;11.90;99.90
19397;DHT22;9834;48.076;11.878;2022-09-03T02:48:28;11.90;99.90
19397;DHT22;9834;48.076;11.878;2022-09-03T02:50:56;11.90;99.90
19397;DHT22;9834;48.076;11.878;2022-09-03T02:53:23;11.90;99.90
19397;DHT22;9834;48.076;11.878;2022-09-03T02:55:57;11.90;99.90
19397;DHT22;9834;48.076;11.878;2022-09-03T02:58:24;11.80;99.90
19397;DHT22;9834;48.076;11.878;2022-09-03T03:00:52;11.80;99.90
19397;DHT22;9834;48.076;11.878;2022-09-03T03:03:19;11.80;99.90
19397;DHT22;9834;48.076;11.878;2022-09-03T03:05:48;11.80;99.90
19397;DHT22;9834;48.076;11.878;2022-09-03T03:08:18;11.80;99.90
19397;DHT22;9834;48.076;11.878;2022-09-03T03:10:46;11.70;99.90
19397;DHT22;9834;48.076;11.878;2022-09-03T03:13:14;11.70;99.90
19397;DHT22;9834;48.076;11.878;2022-09-03T03:15:41;11.60;99.90
19397;DHT22;9834;48.076;11.878;2022-09-03T03:18:09;11.60;99.90
19397;DHT22;9834;48.076;11.878;2022-09-03T03:20:36;11.60;99.90
19397;DHT22;9834;48.076;11.878;2022-09-03T03:23:03;11.50;99.90
19397;DHT22;9834;48.076;11.878;2022-09-03T03:25:33;11.50;99.90
19397;DHT22;9834;48.076;11.878;2022-09-03T03:28:00;11.40;99.90
19397;DHT22;9834;48.076;11.878;2022-09-03T03:30:29;11.40;99.90
19397;DHT22;9834;48.076;11.878;2022-09-03T03:32:56;11.30;99.90
19397;DHT22;9834;48.076;11.878;2022-09-03T03:35:24;11.30;99.90
19397;DHT22;9834;48.076;11.878;2022-09-03T03:37:51;11.30;99.90
19397;DHT22;9834;48.076;11.878;2022-09-03T03:40:18;11.30;99.90
19397;DHT22;9834;48.076;11.878;2022-09-03T03:42:47;11.20;99.90
19397;DHT22;9834;48.076;11.878;2022-09-03T03:45:14;11.20;99.90
19397;DHT22;9834;48.076;11.878;2022-09-03T03:47:42;11.10;99.90
19397;DHT22;9834;48.076;11.878;2022-09-03T03:50:09;11.10;99.90
19397;DHT22;9834;48.076;11.878;2022-09-03T03:52:36;11.10;99.90
19397;DHT22;9834;48.076;11.878;2022-09-03T03:55:03;11.10;99.90
19397;DHT22;9834;48.076;11.878;2022-09-03T03:57:31;11.00;99.90
19397;DHT22;9834;48.076;11.878;2022-09-03T04:00:00;11.00;99.90
19397;DHT22;9834;48.076;11.878;2022-09-03T04:02:27;11.00;99.90
19397;DHT22;9834;48.076;11.878;2022-09-03T04:04:53;10.90;99.90
19397;DHT22;9834;48.076;11.878;2022-09-03T04:07:20;10.90;99.90
19397;DHT22;9834;48.076;11.878;2022-09-03T04:09:47;10.90;99.90
19397;DHT22;9834;48.076;11.878;2022-09-03T04:12:14;10.90;99.90
19397;DHT22;9834;48.076;11.878;2022-09-03T04:14:43;10.90;99.90
19397;DHT22;9834;48.076;11.878;2022-09-03T04:17:12;10.90;99.90
19397;DHT22;9834;48.076;11.878;2022-09-03T04:19:39;10.90;99.90
19397;DHT22;9834;48.076;11.878;2022-09-03T04:22:06;10.90;99.90
19397;DHT22;9834;48.076;11.878;2022-09-03T04:24:33;10.80;99.90
19397;DHT22;9834;48.076;11.878;2022-09-03T04:27:00;10.80;99.90
19397;DHT22;9834;48.076;11.878;2022-09-03T04:29:27;10.90;99.90
19397;DHT22;9834;48.076;11.878;2022-09-03T04:31:55;10.80;99.90
19397;DHT22;9834;48.076;11.878;2022-09-03T04:34:37;10.90;99.90
19397;DHT22;9834;48.076;11.878;2022-09-03T04:37:04;10.80;99.90
19397;DHT22;9834;48.076;11.878;2022-09-03T04:39:31;10.90;99.90
19397;DHT22;9834;48.076;11.878;2022-09-03T04:41:58;10.80;99.90
19397;DHT22;9834;48.076;11.878;2022-09-03T04:44:25;10.80;99.90
19397;DHT22;9834;48.076;11.878;2022-09-03T04:46:52;10.90;99.90
19397;DHT22;9834;48.076;11.878;2022-09-03T04:49:19;10.90;99.90
19397;DHT22;9834;48.076;11.878;2022-09-03T04:51:47;10.90;99.90
19397;DHT22;9834;48.076;11.878;2022-09-03T04:54:14;11.00;99.90
19397;DHT22;9834;48.076;11.878;2022-09-03T04:56:41;11.00;99.90
19397;DHT22;9834;48.076;11.878;2022-09-03T04:59:09;11.00;99.90
19397;DHT22;9834;48.076;11.878;2022-09-03T05:01:38;11.10;99.90
19397;DHT22;9834;48.076;11.878;2022-09-03T05:04:06;11.10;99.90
19397;DHT22;9834;48.076;11.878;2022-09-03T05:06:34;11.20;99.90
19397;DHT22;9834;48.076;11.878;2022-09-03T05:09:04;11.20;99.90
19397;DHT22;9834;48.076;11.878;2022-09-03T05:11:31;11.30;99.90
19397;DHT22;9834;48.076;11.878;2022-09-03T05:13:58;11.30;99.90
19397;DHT22;9834;48.076;11.878;2022-09-03T05:16:26;11.40;99.90
19397;DHT22;9834;48.076;11.878;2022-09-03T05:18:56;11.50;99.90
19397;DHT22;9834;48.076;11.878;2022-09-03T05:21:25;11.60;99.90
19397;DHT22;9834;48.076;11.878;2022-09-03T05:23:53;11.60;99.90
19397;DHT22;9834;48.076;11.878;2022-09-03T05:26:23;11.70;99.90
19397;DHT22;9834;48.076;11.878;2022-09-03T05:28:53;11.70;99.90
19397;DHT22;9834;48.076;11.878;2022-09-03T05:31:22;11.80;99.90
19397;DHT22;9834;48.076;11.878;2022-09-03T05:33:52;11.90;99.90
19397;DHT22;9834;48.076;11.878;2022-09-03T05:36:21;12.00;99.90
19397;DHT22;9834;48.076;11.878;2022-09-03T05:38:49;12.10;99.90
19397;DHT22;9834;48.076;11.878;2022-09-03T05:41:21;12.20;99.90
19397;DHT22;9834;48.076;11.878;2022-09-03T05:43:49;12.30;99.90
19397;DHT22;9834;48.076;11.878;2022-09-03T05:46:21;12.50;99.90
19397;DHT22;9834;48.076;11.878;2022-09-03T05:48:52;12.50;99.90
19397;DHT22;9834;48.076;11.878;2022-09-03T05:51:19;12.70;99.90
19397;DHT22;9834;48.076;11.878;2022-09-03T05:53:47;12.80;99.90
19397;DHT22;9834;48.076;11.878;2022-09-03T05:56:16;12.90;99.90
19397;DHT22;9834;48.076;11.878;2022-09-03T05:58:46;13.00;99.90
19397;DHT22;9834;48.076;11.878;2022-09-03T06:01:15;13.20;99.90
19397;DHT22;9834;48.076;11.878;2022-09-03T06:03:43;13.30;99.90
19397;DHT22;9834;48.076;11.878;2022-09-03T06:06:11;13.30;99.90
19397;DHT22;9834;48.076;11.878;2022-09-03T06:08:39;13.40;99.90
19397;DHT22;9834;48.076;11.878;2022-09-03T06:11:09;13.50;99.90
19397;DHT22;9834;48.076;11.878;2022-09-03T06:13:37;13.50;99.90
19397;DHT22;9834;48.076;11.878;2022-09-03T06:16:06;13.60;99.90
19397;DHT22;9834;48.076;11.878;2022-09-03T06:18:33;13.60;99.90
19397;DHT22;9834;48.076;11.878;2022-09-03T06:21:02;13.50;99.90
19397;DHT22;9834;48.076;11.878;2022-09-03T06:23:30;13.60;99.90
19397;DHT22;9834;48.076;11.878;2022-09-03T06:26:02;13.60;99.90
19397;DHT22;9834;48.076;11.878;2022-09-03T06:28:29;13.80;99.90
19397;DHT22;9834;48.076;11.878;2022-09-03T06:30:57;13.90;99.90
19397;DHT22;9834;48.076;11.878;2022-09-03T06:33:26;14.00;99.90
19397;DHT22;9834;48.076;11.878;2022-09-03T06:35:55;14.20;99.90
19397;DHT22;9834;48.076;11.878;2022-09-03T06:38:24;14.50;99.90
19397;DHT22;9834;48.076;11.878;2022-09-03T06:40:53;14.60;99.90
19397;DHT22;9834;48.076;11.878;2022-09-03T06:43:20;14.80;99.90
19397;DHT22;9834;48.076;11.878;2022-09-03T06:45:54;14.90;99.90
19397;DHT22;9834;48.076;11.878;2022-09-03T06:48:21;15.00;99.90
19397;DHT22;9834;48.076;11.878;2022-09-03T06:50:57;14.90;99.90
19397;DHT22;9834;48.076;11.878;2022-09-03T06:53:26;14.90;99.90
19397;DHT22;9834;48.076;11.878;2022-09-03T06:55:54;15.00;99.90
19397;DHT22;9834;48.076;11.878;2022-09-03T06:58:22;15.20;99.90
19397;DHT22;9834;48.076;11.878;2022-09-03T07:00:49;15.30;99.90
19397;DHT22;9834;48.076;11.878;2022-09-03T07:03:17;15.60;99.90
19397;DHT22;9834;48.076;11.878;2022-09-03T07:05:45;15.80;99.90
19397;DHT22;9834;48.076;11.878;2022-09-03T07:08:13;16.10;99.90
19397;DHT22;9834;48.076;11.878;2022-09-03T07:10:44;16.40;99.90
19397;DHT22;9834;48.076;11.878;2022-09-03T07:13:12;16.60;99.90
19397;DHT22;9834;48.076;11.878;2022-09-03T07:15:39;16.70;99.90
19397;DHT22;9834;48.076;11.878;2022-09-03T07:18:06;16.70;99.90
19397;DHT22;9834;48.076;11.878;2022-09-03T07:20:33;16.80;99.90
19397;DHT22;9834;48.076;11.878;2022-09-03T07:23:01;17.00;99.90
19397;DHT22;9834;48.076;11.878;2022-09-03T07:25:29;17.20;99.90
19397;DHT22;9834;48.076;11.878;2022-09-03T07:27:56;17.50;99.90
19397;DHT22;9834;48.076;11.878;2022-09-03T07:30:24;17.50;99.90
19397;DHT22;9834;48.076;11.878;2022-09-03T07:32:52;17.60;99.90
19397;DHT22;9834;48.076;11.878;2022-09-03T07:35:19;17.60;99.90
19397;DHT22;9834;48.076;11.878;2022-09-03T07:37:50;17.50;99.90
19397;DHT22;9834;48.076;11.878;2022-09-03T07:40:17;17.40;99.90
19397;DHT22;9834;48.076;11.878;2022-09-03T07:42:45;17.30;99.90
19397;DHT22;9834;48.076;11.878;2022-09-03T07:45:14;17.40;99.90
19397;DHT22;9834;48.076;11.878;2022-09-03T07:47:46;17.60;99.90
19397;DHT22;9834;48.076;11.878;2022-09-03T07:50:14;17.70;99.90
19397;DHT22;9834;48.076;11.878;2022-09-03T07:52:42;17.80;99.90
19397;DHT22;9834;48.076;11.878;2022-09-03T07:55:09;17.90;99.90
19397;DHT22;9834;48.076;11.878;2022-09-03T07:57:36;18.00;99.90
19397;DHT22;9834;48.076;11.878;2022-09-03T08:00:06;18.10;99.90
19397;DHT22;9834;48.076;11.878;2022-09-03T08:02:40;18.20;99.90
19397;DHT22;9834;48.076;11.878;2022-09-03T08:05:08;18.30;99.90
19397;DHT22;9834;48.076;11.878;2022-09-03T08:07:35;18.50;99.90
19397;DHT22;9834;48.076;11.878;2022-09-03T08:10:02;18.60;99.90
19397;DHT22;9834;48.076;11.878;2022-09-03T08:12:30;18.40;99.90
19397;DHT22;9834;48.076;11.878;2022-09-03T08:14:57;18.20;99.90
19397;DHT22;9834;48.076;11.878;2022-09-03T08:17:26;17.90;99.90
19397;DHT22;9834;48.076;11.878;2022-09-03T08:19:53;17.90;99.90
19397;DHT22;9834;48.076;11.878;2022-09-03T08:22:22;18.00;99.90
19397;DHT22;9834;48.076;11.878;2022-09-03T08:24:50;18.20;99.90
19397;DHT22;9834;48.076;11.878;2022-09-03T08:27:20;18.40;99.90
19397;DHT22;9834;48.076;11.878;2022-09-03T08:29:50;18.70;99.90
19397;DHT22;9834;48.076;11.878;2022-09-03T08:32:17;18.90;99.90
19397;DHT22;9834;48.076;11.878;2022-09-03T08:34:46;19.10;99.90
19397;DHT22;9834;48.076;11.878;2022-09-03T08:37:12;19.50;99.90
19397;DHT22;9834;48.076;11.878;2022-09-03T08:39:39;19.70;99.90
19397;DHT22;9834;48.076;11.878;2022-09-03T08:42:24;20.20;99.90
19397;DHT22;9834;48.076;11.878;2022-09-03T08:44:54;20.60;99.90
19397;DHT22;9834;48.076;11.878;2022-09-03T08:47:26;20.70;97.60
19397;DHT22;9834;48.076;11.878;2022-09-03T08:49:58;20.70;98.30
19397;DHT22;9834;48.076;11.878;2022-09-03T08:52:30;20.80;98.90
19397;DHT22;9834;48.076;11.878;2022-09-03T08:55:07;20.90;98.50
19397;DHT22;9834;48.076;11.878;2022-09-03T08:57:42;20.80;97.40
19397;DHT22;9834;48.076;11.878;2022-09-03T09:00:11;20.80;97.30
19397;DHT22;9834;48.076;11.878;2022-09-03T09:02:53;20.70;97.20
19397;DHT22;9834;48.076;11.878;2022-09-03T09:05:33;20.60;98.10
19397;DHT22;9834;48.076;11.878;2022-09-03T09:08:11;20.80;98.60
19397;DHT22;9834;48.076;11.878;2022-09-03T09:10:55;21.10;97.40
19397;DHT22;9834;48.076;11.878;2022-09-03T09:13:27;21.00;96.30
19397;DHT22;9834;48.076;11.878;2022-09-03T09:16:05;20.90;97.40
19397;DHT22;9834;48.076;11.878;2022-09-03T09:18:42;20.90;96.40
19397;DHT22;9834;48.076;11.878;2022-09-03T09:21:15;20.80;96.60
19397;DHT22;9834;48.076;11.878;2022-09-03T09:23:46;20.90;96.90
19397;DHT22;9834;48.076;11.878;2022-09-03T09:26:15;20.80;98.20
19397;DHT22;9834;48.076;11.878;2022-09-03T09:28:45;20.90;98.20
19397;DHT22;9834;48.076;11.878;2022-09-03T09:31:14;21.00;97.50
19397;DHT22;9834;48.076;11.878;2022-09-03T09:33:43;21.10;95.80
19397;DHT22;9834;48.076;11.878;2022-09-03T09:36:13;21.20;97.50
19397;DHT22;9834;48.076;11.878;2022-09-03T09:38:44;21.40;94.40
19397;DHT22;9834;48.076;11.878;2022-09-03T09:41:13;21.60;95.20
19397;DHT22;9834;48.076;11.878;2022-09-03T09:43:41;21.90;94.10
19397;DHT22;9834;48.076;11.878;2022-09-03T09:46:12;22.20;94.00
19397;DHT22;9834;48.076;11.878;2022-09-03T09:48:47;22.50;94.70
19397;DHT22;9834;48.076;11.878;2022-09-03T09:51:20;22.60;91.30
19397;DHT22;9834;48.076;11.878;2022-09-03T09:53:48;22.40;92.00
19397;DHT22;9834;48.076;11.878;2022-09-03T09:56:26;22.50;92.20
19397;DHT22;9834;48.076;11.878;2022-09-03T09:59:02;22.60;91.70
19397;DHT22;9834;48.076;11.878;2022-09-03T10:01:30;22.80;90.70
19397;DHT22;9834;48.076;11.878;2022-09-03T10:03:58;23.00;90.10
19397;DHT22;9834;48.076;11.878;2022-09-03T10:06:29;23.30;86.70
19397;DHT22;9834;48.076;11.878;2022-09-03T10:09:15;23.60;87.00
19397;DHT22;9834;48.076;11.878;2022-09-03T10:11:46;23.90;83.20
19397;DHT22;9834;48.076;11.878;2022-09-03T10:14:19;23.70;80.80
19397;DHT22;9834;48.076;11.878;2022-09-03T10:16:53;23.90;84.20
19397;DHT22;9834;48.076;11.878;2022-09-03T10:19:27;24.10;81.30
19397;DHT22;9834;48.076;11.878;2022-09-03T10:22:05;24.50;78.80
19397;DHT22;9834;48.076;11.878;2022-09-03T10:24:40;24.50;82.10
19397;DHT22;9834;48.076;11.878;2022-09-03T10:27:13;24.60;75.40
19397;DHT22;9834;48.076;11.878;2022-09-03T10:29:43;24.70;75.40
19397;DHT22;9834;48.076;11.878;2022-09-03T10:32:21;25.00;75.40
19397;DHT22;9834;48.076;11.878;2022-09-03T10:34:56;25.30;73.80
19397;DHT22;9834;48.076;11.878;2022-09-03T10:37:35;25.00;70.80
19397;DHT22;9834;48.076;11.878;2022-09-03T10:40:16;24.80;70.80
19397;DHT22;9834;48.076;11.878;2022-09-03T10:42:49;25.10;71.60
19397;DHT22;9834;48.076;11.878;2022-09-03T10:45:31;25.50;72.40
19397;DHT22;9834;48.076;11.878;2022-09-03T10:48:18;25.90;69.90
19397;DHT22;9834;48.076;11.878;2022-09-03T10:50:52;26.00;69.20
19397;DHT22;9834;48.076;11.878;2022-09-03T10:53:33;26.00;69.40
19397;DHT22;9834;48.076;11.878;2022-09-03T10:56:08;26.10;67.50
19397;DHT22;9834;48.076;11.878;2022-09-03T10:58:51;26.50;66.50
19397;DHT22;9834;48.076;11.878;2022-09-03T11:01:26;26.90;71.30
19397;DHT22;9834;48.076;11.878;2022-09-03T11:06:51;28.50;58.20
19397;DHT22;9834;48.076;11.878;2022-09-03T11:09:25;29.10;60.00
19397;DHT22;9834;48.076;11.878;2022-09-03T11:11:55;29.10;56.90
19397;DHT22;9834;48.076;11.878;2022-09-03T11:14:31;28.50;57.30
19397;DHT22;9834;48.076;11.878;2022-09-03T11:17:04;27.90;59.70
19397;DHT22;9834;48.076;11.878;2022-09-03T11:19:33;27.90;61.70
19397;DHT22;9834;48.076;11.878;2022-09-03T11:22:03;28.60;58.50
19397;DHT22;9834;48.076;11.878;2022-09-03T11:24:34;29.70;61.30
19397;DHT22;9834;48.076;11.878;2022-09-03T11:27:16;30.80;62.40
19397;DHT22;9834;48.076;11.878;2022-09-03T11:29:50;30.70;52.30
19397;DHT22;9834;48.076;11.878;2022-09-03T11:32:21;29.80;54.00
19397;DHT22;9834;48.076;11.878;2022-09-03T11:34:51;29.00;55.50
19397;DHT22;9834;48.076;11.878;2022-09-03T11:37:20;29.30;56.30
19397;DHT22;9834;48.076;11.878;2022-09-03T11:39:58;30.20;55.30
19397;DHT22;9834;48.076;11.878;2022-09-03T11:42:31;30.90;52.00
19397;DHT22;9834;48.076;11.878;2022-09-03T11:45:12;30.60;50.90
19397;DHT22;9834;48.076;11.878;2022-09-03T11:47:41;29.90;53.00
19397;DHT22;9834;48.076;11.878;2022-09-03T11:50:18;29.20;56.70
19397;DHT22;9834;48.076;11.878;2022-09-03T11:52:46;29.80;54.30
19397;DHT22;9834;48.076;11.878;2022-09-03T11:55:26;30.60;52.00
19397;DHT22;9834;48.076;11.878;2022-09-03T11:57:55;31.80;49.70
19397;DHT22;9834;48.076;11.878;2022-09-03T12:00:23;32.20;47.40
19397;DHT22;9834;48.076;11.878;2022-09-03T12:03:00;32.60;47.10
19397;DHT22;9834;48.076;11.878;2022-09-03T12:05:39;33.40;46.40
19397;DHT22;9834;48.076;11.878;2022-09-03T12:08:34;32.80;49.50
19397;DHT22;9834;48.076;11.878;2022-09-03T12:11:20;31.40;47.20
19397;DHT22;9834;48.076;11.878;2022-09-03T12:13:55;29.40;51.30
19397;DHT22;9834;48.076;11.878;2022-09-03T12:16:50;29.00;53.90
19397;DHT22;9834;48.076;11.878;2022-09-03T12:19:27;29.10;52.30
19397;DHT22;9834;48.076;11.878;2022-09-03T12:21:57;29.40;53.00
19397;DHT22;9834;48.076;11.878;2022-09-03T12:24:26;31.20;51.10
19397;DHT22;9834;48.076;11.878;2022-09-03T12:26:59;32.80;48.90
19397;DHT22;9834;48.076;11.878;2022-09-03T12:29:29;34.60;44.60
19397;DHT22;9834;48.076;11.878;2022-09-03T12:32:05;35.50;43.70
19397;DHT22;9834;48.076;11.878;2022-09-03T12:34:32;36.00;43.40
19397;DHT22;9834;48.076;11.878;2022-09-03T12:36:59;36.20;43.00
19397;DHT22;9834;48.076;11.878;2022-09-03T12:39:28;36.40;41.90
19397;DHT22;9834;48.076;11.878;2022-09-03T12:42:00;36.80;40.50
19397;DHT22;9834;48.076;11.878;2022-09-03T12:44:30;37.00;42.50
19397;DHT22;9834;48.076;11.878;2022-09-03T12:47:01;36.00;42.40
19397;DHT22;9834;48.076;11.878;2022-09-03T12:49:36;35.00;45.00
19397;DHT22;9834;48.076;11.878;2022-09-03T12:52:15;34.20;46.40
19397;DHT22;9834;48.076;11.878;2022-09-03T12:54:50;33.50;47.10
19397;DHT22;9834;48.076;11.878;2022-09-03T12:57:29;34.00;46.90
19397;DHT22;9834;48.076;11.878;2022-09-03T13:00:03;36.00;46.80
19397;DHT22;9834;48.076;11.878;2022-09-03T13:02:36;36.70;42.50
19397;DHT22;9834;48.076;11.878;2022-09-03T13:05:09;36.80;42.10
19397;DHT22;9834;48.076;11.878;2022-09-03T13:07:37;37.30;41.40
19397;DHT22;9834;48.076;11.878;2022-09-03T13:10:07;38.10;41.70
19397;DHT22;9834;48.076;11.878;2022-09-03T13:12:46;39.00;40.60
19397;DHT22;9834;48.076;11.878;2022-09-03T13:15:18;39.30;38.70
19397;DHT22;9834;48.076;11.878;2022-09-03T13:18:15;40.10;34.40
19397;DHT22;9834;48.076;11.878;2022-09-03T13:20:55;40.50;35.00
19397;DHT22;9834;48.076;11.878;2022-09-03T13:23:38;40.50;35.00
19397;DHT22;9834;48.076;11.878;2022-09-03T13:26:19;40.90;35.30
19397;DHT22;9834;48.076;11.878;2022-09-03T13:29:04;40.00;34.70
19397;DHT22;9834;48.076;11.878;2022-09-03T13:31:42;40.10;36.50
19397;DHT22;9834;48.076;11.878;2022-09-03T13:34:15;40.40;34.20
19397;DHT22;9834;48.076;11.878;2022-09-03T13:36:48;39.90;35.20
19397;DHT22;9834;48.076;11.878;2022-09-03T13:39:23;38.40;37.70
19397;DHT22;9834;48.076;11.878;2022-09-03T13:41:56;37.00;39.90
19397;DHT22;9834;48.076;11.878;2022-09-03T13:44:41;37.40;37.30
19397;DHT22;9834;48.076;11.878;2022-09-03T13:47:18;36.90;36.50
19397;DHT22;9834;48.076;11.878;2022-09-03T13:49:51;38.10;36.20
19397;DHT22;9834;48.076;11.878;2022-09-03T13:52:42;38.30;36.90
19397;DHT22;9834;48.076;11.878;2022-09-03T13:55:17;38.40;37.00
19397;DHT22;9834;48.076;11.878;2022-09-03T13:57:49;39.80;36.40
19397;DHT22;9834;48.076;11.878;2022-09-03T14:00:27;39.60;35.50
19397;DHT22;9834;48.076;11.878;2022-09-03T14:03:05;38.40;37.30
19397;DHT22;9834;48.076;11.878;2022-09-03T14:05:52;35.80;39.50
19397;DHT22;9834;48.076;11.878;2022-09-03T14:08:26;33.00;44.70
19397;DHT22;9834;48.076;11.878;2022-09-03T14:10:59;30.30;48.90
19397;DHT22;9834;48.076;11.878;2022-09-03T14:13:47;28.90;53.30
19397;DHT22;9834;48.076;11.878;2022-09-03T14:16:28;27.80;54.60
19397;DHT22;9834;48.076;11.878;2022-09-03T14:19:00;27.20;57.30
19397;DHT22;9834;48.076;11.878;2022-09-03T14:21:38;26.70;58.40
19397;DHT22;9834;48.076;11.878;2022-09-03T14:24:13;26.30;60.60
19397;DHT22;9834;48.076;11.878;2022-09-03T14:26:51;25.70;62.40
19397;DHT22;9834;48.076;11.878;2022-09-03T14:29:24;25.30;64.20
19397;DHT22;9834;48.076;11.878;2022-09-03T14:32:13;24.80;66.70
19397;DHT22;9834;48.076;11.878;2022-09-03T14:34:56;24.30;69.90
19397;DHT22;9834;48.076;11.878;2022-09-03T14:40:38;23.40;73.40
19397;DHT22;9834;48.076;11.878;2022-09-03T14:43:26;23.10;74.10
19397;DHT22;9834;48.076;11.878;2022-09-03T14:46:08;22.70;80.00
19397;DHT22;9834;48.076;11.878;2022-09-03T14:48:58;22.50;83.10
19397;DHT22;9834;48.076;11.878;2022-09-03T14:51:43;22.30;83.90
19397;DHT22;9834;48.076;11.878;2022-09-03T14:54:29;22.00;86.50
19397;DHT22;9834;48.076;11.878;2022-09-03T14:57:16;21.70;91.60
19397;DHT22;9834;48.076;11.878;2022-09-03T15:00:01;21.20;94.70
19397;DHT22;9834;48.076;11.878;2022-09-03T15:03:19;20.40;99.90
19397;DHT22;9834;48.076;11.878;2022-09-03T15:06:09;18.60;98.50
19397;DHT22;9834;48.076;11.878;2022-09-03T15:08:51;16.30;99.90
19397;DHT22;9834;48.076;11.878;2022-09-03T15:11:22;15.10;99.90
19397;DHT22;9834;48.076;11.878;2022-09-03T15:13:52;14.50;99.90
19397;DHT22;9834;48.076;11.878;2022-09-03T15:16:30;14.20;99.90
19397;DHT22;9834;48.076;11.878;2022-09-03T15:19:09;14.20;99.90
19397;DHT22;9834;48.076;11.878;2022-09-03T15:21:48;14.20;99.90
19397;DHT22;9834;48.076;11.878;2022-09-03T15:24:28;14.40;99.90
19397;DHT22;9834;48.076;11.878;2022-09-03T15:27:08;14.60;99.90
19397;DHT22;9834;48.076;11.878;2022-09-03T15:29:48;14.70;99.90
19397;DHT22;9834;48.076;11.878;2022-09-03T15:32:31;14.80;99.90
19397;DHT22;9834;48.076;11.878;2022-09-03T15:35:07;14.90;99.90
19397;DHT22;9834;48.076;11.878;2022-09-03T15:37:43;15.00;99.90
19397;DHT22;9834;48.076;11.878;2022-09-03T15:40:25;15.10;99.90
19397;DHT22;9834;48.076;11.878;2022-09-03T15:42:57;15.20;99.90
19397;DHT22;9834;48.076;11.878;2022-09-03T15:45:33;15.10;99.90
19397;DHT22;9834;48.076;11.878;2022-09-03T15:48:08;15.00;99.90
19397;DHT22;9834;48.076;11.878;2022-09-03T15:50:48;15.00;99.90
19397;DHT22;9834;48.076;11.878;2022-09-03T15:53:27;15.00;99.90
19397;DHT22;9834;48.076;11.878;2022-09-03T15:56:05;15.10;99.90
19397;DHT22;9834;48.076;11.878;2022-09-03T15:58:36;15.10;99.90
19397;DHT22;9834;48.076;11.878;2022-09-03T16:01:18;15.00;99.90
19397;DHT22;9834;48.076;11.878;2022-09-03T16:03:57;15.00;99.90
19397;DHT22;9834;48.076;11.878;2022-09-03T16:06:31;14.90;99.90
19397;DHT22;9834;48.076;11.878;2022-09-03T16:09:07;14.90;99.90
19397;DHT22;9834;48.076;11.878;2022-09-03T16:11:38;14.80;99.90